sensor_id;sensor_type;location;lat;lon;timestamp;P1;durP1;ratioP1;P2;durP2;ratioP2
43519;SDS011;46848;51.980;5.918;2022-09-17T00:01:06;8.55;;;2.95;;
43519;SDS011;46848;51.980;5.918;2022-09-17T00:03:34;10.02;;;3.13;;
43519;SDS011;46848;51.980;5.918;2022-09-17T00:06:00;10.57;;;2.80;;
43519;SDS011;46848;51.980;5.918;2022-09-17T00:08:29;10.07;;;2.53;;
43519;SDS011;46848;51.980;5.918;2022-09-17T00:10:55;9.45;;;2.97;;
43519;SDS011;46848;51.980;5.918;2022-09-17T00:13:21;8.65;;;2.70;;
43519;SDS011;46848;51.980;5.918;2022-09-17T00:15:47;18.00;;;9.30;;
43519;SDS011;46848;51.980;5.918;2022-09-17T00:18:13;17.90;;;7.90;;
43519;SDS011;46848;51.980;5.918;2022-09-17T00:20:40;17.73;;;7.43;;
43519;SDS011;46848;51.980;5.918;2022-09-17T00:23:08;16.08;;;6.82;;
43519;SDS011;46848;51.980;5.918;2022-09-17T00:25:37;15.52;;;9.20;;
43519;SDS011;46848;51.980;5.918;2022-09-17T00:28:03;26.83;;;13.30;;
43519;SDS011;46848;51.980;5.918;2022-09-17T00:30:29;22.52;;;9.75;;
43519;SDS011;46848;51.980;5.918;2022-09-17T00:32:55;16.90;;;7.40;;
43519;SDS011;46848;51.980;5.918;2022-09-17T00:35:25;15.88;;;8.50;;
43519;SDS011;46848;51.980;5.918;2022-09-17T00:37:51;22.38;;;11.95;;
43519;SDS011;46848;51.980;5.918;2022-09-17T00:40:18;17.02;;;7.03;;
43519;SDS011;46848;51.980;5.918;2022-09-17T00:42:44;11.23;;;4.43;;
43519;SDS011;46848;51.980;5.918;2022-09-17T00:45:11;8.40;;;3.33;;
43519;SDS011;46848;51.980;5.918;2022-09-17T00:47:37;8.45;;;2.35;;
43519;SDS011;46848;51.980;5.918;2022-09-17T00:52:45;7.28;;;1.88;;
43519;SDS011;46848;51.980;5.918;2022-09-17T00:55:31;6.97;;;2.08;;
43519;SDS011;46848;51.980;5.918;2022-09-17T00:58:01;8.05;;;1.80;;
43519;SDS011;46848;51.980;5.918;2022-09-17T01:00:28;11.20;;;1.70;;
43519;SDS011;46848;51.980;5.918;2022-09-17T01:02:55;8.05;;;1.50;;
43519;SDS011;46848;51.980;5.918;2022-09-17T01:05:24;7.38;;;1.90;;
43519;SDS011;46848;51.980;5.918;2022-09-17T01:08:08;9.48;;;1.77;;
43519;SDS011;46848;51.980;5.918;2022-09-17T01:11:22;8.25;;;1.75;;
43519;SDS011;46848;51.980;5.918;2022-09-17T01:24:44;6.95;;;1.55;;
43519;SDS011;46848;51.980;5.918;2022-09-17T01:32:38;8.43;;;1.88;;
43519;SDS011;46848;51.980;5.918;2022-09-17T01:38:36;6.95;;;1.50;;
43519;SDS011;46848;51.980;5.918;2022-09-17T01:44:00;7.25;;;1.42;;
43519;SDS011;46848;51.980;5.918;2022-09-17T01:49:38;8.55;;;1.98;;
43519;SDS011;46848;51.980;5.918;2022-09-17T01:52:06;6.78;;;1.50;;
43519;SDS011;46848;51.980;5.918;2022-09-17T01:54:35;9.15;;;1.58;;
43519;SDS011;46848;51.980;5.918;2022-09-17T01:57:08;8.35;;;1.63;;
43519;SDS011;46848;51.980;5.918;2022-09-17T02:05:05;6.35;;;1.48;;
43519;SDS011;46848;51.980;5.918;2022-09-17T02:07:39;7.65;;;1.60;;
43519;SDS011;46848;51.980;5.918;2022-09-17T02:10:13;7.47;;;1.90;;
43519;SDS011;46848;51.980;5.918;2022-09-17T02:12:45;9.55;;;1.80;;
43519;SDS011;46848;51.980;5.918;2022-09-17T02:15:21;10.35;;;2.00;;
43519;SDS011;46848;51.980;5.918;2022-09-17T02:17:56;10.25;;;2.15;;
43519;SDS011;46848;51.980;5.918;2022-09-17T02:20:34;9.65;;;1.83;;
43519;SDS011;46848;51.980;5.918;2022-09-17T02:23:07;9.05;;;1.77;;
43519;SDS011;46848;51.980;5.918;2022-09-17T02:25:49;10.52;;;2.63;;
43519;SDS011;46848;51.980;5.918;2022-09-17T02:28:40;7.85;;;1.73;;
43519;SDS011;46848;51.980;5.918;2022-09-17T02:31:14;9.35;;;1.58;;
43519;SDS011;46848;51.980;5.918;2022-09-17T02:33:40;10.00;;;2.50;;
43519;SDS011;46848;51.980;5.918;2022-09-17T02:36:10;8.23;;;1.52;;
43519;SDS011;46848;51.980;5.918;2022-09-17T02:38:37;10.20;;;1.95;;
43519;SDS011;46848;51.980;5.918;2022-09-17T02:41:15;11.07;;;2.30;;
43519;SDS011;46848;51.980;5.918;2022-09-17T02:44:05;8.23;;;1.48;;
43519;SDS011;46848;51.980;5.918;2022-09-17T02:49:29;10.13;;;1.90;;
43519;SDS011;46848;51.980;5.918;2022-09-17T02:57:38;9.07;;;2.00;;
43519;SDS011;46848;51.980;5.918;2022-09-17T03:00:16;9.02;;;1.85;;
43519;SDS011;46848;51.980;5.918;2022-09-17T03:02:52;6.05;;;1.10;;
43519;SDS011;46848;51.980;5.918;2022-09-17T03:05:24;12.68;;;1.92;;
43519;SDS011;46848;51.980;5.918;2022-09-17T03:07:53;7.13;;;1.60;;
43519;SDS011;46848;51.980;5.918;2022-09-17T03:10:21;8.43;;;1.45;;
43519;SDS011;46848;51.980;5.918;2022-09-17T03:12:47;6.00;;;1.25;;
43519;SDS011;46848;51.980;5.918;2022-09-17T03:15:12;11.75;;;1.63;;
43519;SDS011;46848;51.980;5.918;2022-09-17T03:17:38;13.10;;;1.85;;
43519;SDS011;46848;51.980;5.918;2022-09-17T03:20:04;12.13;;;1.75;;
43519;SDS011;46848;51.980;5.918;2022-09-17T03:22:30;7.68;;;1.60;;
43519;SDS011;46848;51.980;5.918;2022-09-17T03:24:56;8.77;;;1.75;;
43519;SDS011;46848;51.980;5.918;2022-09-17T03:27:21;8.63;;;1.50;;
43519;SDS011;46848;51.980;5.918;2022-09-17T03:29:47;10.80;;;1.42;;
43519;SDS011;46848;51.980;5.918;2022-09-17T03:32:13;6.03;;;1.33;;
43519;SDS011;46848;51.980;5.918;2022-09-17T03:34:38;7.00;;;1.90;;
43519;SDS011;46848;51.980;5.918;2022-09-17T03:37:04;10.18;;;1.88;;
43519;SDS011;46848;51.980;5.918;2022-09-17T03:39:30;7.85;;;1.63;;
43519;SDS011;46848;51.980;5.918;2022-09-17T03:41:55;6.43;;;1.45;;
43519;SDS011;46848;51.980;5.918;2022-09-17T03:44:21;8.40;;;1.40;;
43519;SDS011;46848;51.980;5.918;2022-09-17T03:46:47;8.25;;;1.40;;
43519;SDS011;46848;51.980;5.918;2022-09-17T03:49:14;5.38;;;1.35;;
43519;SDS011;46848;51.980;5.918;2022-09-17T03:51:39;8.75;;;1.40;;
43519;SDS011;46848;51.980;5.918;2022-09-17T03:54:05;6.32;;;1.52;;
43519;SDS011;46848;51.980;5.918;2022-09-17T03:56:31;8.88;;;1.50;;
43519;SDS011;46848;51.980;5.918;2022-09-17T03:58:57;7.47;;;1.50;;
43519;SDS011;46848;51.980;5.918;2022-09-17T04:01:24;6.35;;;1.13;;
43519;SDS011;46848;51.980;5.918;2022-09-17T04:03:51;9.13;;;1.35;;
43519;SDS011;46848;51.980;5.918;2022-09-17T04:06:16;6.53;;;1.30;;
43519;SDS011;46848;51.980;5.918;2022-09-17T04:08:42;6.60;;;1.73;;
43519;SDS011;46848;51.980;5.918;2022-09-17T04:11:08;5.00;;;1.10;;
43519;SDS011;46848;51.980;5.918;2022-09-17T04:13:34;6.00;;;1.40;;
43519;SDS011;46848;51.980;5.918;2022-09-17T04:16:00;4.78;;;1.20;;
43519;SDS011;46848;51.980;5.918;2022-09-17T04:18:26;7.50;;;1.17;;
43519;SDS011;46848;51.980;5.918;2022-09-17T04:20:52;6.95;;;1.50;;
43519;SDS011;46848;51.980;5.918;2022-09-17T04:23:18;16.73;;;5.63;;
43519;SDS011;46848;51.980;5.918;2022-09-17T04:25:44;10.75;;;3.22;;
43519;SDS011;46848;51.980;5.918;2022-09-17T04:28:10;11.18;;;2.50;;
43519;SDS011;46848;51.980;5.918;2022-09-17T04:30:36;8.07;;;1.67;;
43519;SDS011;46848;51.980;5.918;2022-09-17T04:33:02;9.75;;;1.95;;
43519;SDS011;46848;51.980;5.918;2022-09-17T04:35:28;5.18;;;1.38;;
43519;SDS011;46848;51.980;5.918;2022-09-17T04:37:54;7.82;;;1.67;;
43519;SDS011;46848;51.980;5.918;2022-09-17T04:40:21;6.00;;;1.38;;
43519;SDS011;46848;51.980;5.918;2022-09-17T04:42:51;8.88;;;1.55;;
43519;SDS011;46848;51.980;5.918;2022-09-17T04:45:17;5.00;;;1.05;;
43519;SDS011;46848;51.980;5.918;2022-09-17T04:47:42;6.25;;;1.20;;
43519;SDS011;46848;51.980;5.918;2022-09-17T04:50:08;7.53;;;1.40;;
43519;SDS011;46848;51.980;5.918;2022-09-17T04:52:34;7.28;;;1.30;;
43519;SDS011;46848;51.980;5.918;2022-09-17T04:55:00;8.60;;;2.00;;
43519;SDS011;46848;51.980;5.918;2022-09-17T04:57:26;6.13;;;1.23;;
43519;SDS011;46848;51.980;5.918;2022-09-17T04:59:52;7.72;;;1.70;;
43519;SDS011;46848;51.980;5.918;2022-09-17T05:02:17;6.10;;;1.20;;
43519;SDS011;46848;51.980;5.918;2022-09-17T05:04:43;7.97;;;1.30;;
43519;SDS011;46848;51.980;5.918;2022-09-17T05:07:09;5.55;;;1.10;;
43519;SDS011;46848;51.980;5.918;2022-09-17T05:09:34;7.57;;;1.17;;
43519;SDS011;46848;51.980;5.918;2022-09-17T05:12:00;6.60;;;1.25;;
43519;SDS011;46848;51.980;5.918;2022-09-17T05:14:26;4.03;;;1.00;;
43519;SDS011;46848;51.980;5.918;2022-09-17T05:16:52;6.85;;;1.00;;
43519;SDS011;46848;51.980;5.918;2022-09-17T05:19:17;5.00;;;1.00;;
43519;SDS011;46848;51.980;5.918;2022-09-17T05:21:43;3.45;;;0.85;;
43519;SDS011;46848;51.980;5.918;2022-09-17T05:24:08;6.68;;;1.40;;
43519;SDS011;46848;51.980;5.918;2022-09-17T05:26:34;8.77;;;1.85;;
43519;SDS011;46848;51.980;5.918;2022-09-17T05:29:00;5.97;;;1.35;;
43519;SDS011;46848;51.980;5.918;2022-09-17T05:31:25;8.00;;;1.50;;
43519;SDS011;46848;51.980;5.918;2022-09-17T05:33:51;5.75;;;1.27;;
43519;SDS011;46848;51.980;5.918;2022-09-17T05:36:17;7.65;;;1.52;;
43519;SDS011;46848;51.980;5.918;2022-09-17T05:38:42;5.63;;;1.17;;
43519;SDS011;46848;51.980;5.918;2022-09-17T05:41:08;6.80;;;1.33;;
43519;SDS011;46848;51.980;5.918;2022-09-17T05:43:33;6.13;;;1.27;;
43519;SDS011;46848;51.980;5.918;2022-09-17T05:46:00;6.90;;;1.52;;
43519;SDS011;46848;51.980;5.918;2022-09-17T05:48:29;6.40;;;1.30;;
43519;SDS011;46848;51.980;5.918;2022-09-17T05:50:55;9.52;;;1.30;;
43519;SDS011;46848;51.980;5.918;2022-09-17T05:53:21;4.95;;;1.02;;
43519;SDS011;46848;51.980;5.918;2022-09-17T05:55:47;6.95;;;1.50;;
43519;SDS011;46848;51.980;5.918;2022-09-17T05:58:13;7.10;;;1.27;;
43519;SDS011;46848;51.980;5.918;2022-09-17T06:00:41;5.93;;;1.77;;
43519;SDS011;46848;51.980;5.918;2022-09-17T06:03:10;8.25;;;1.60;;
43519;SDS011;46848;51.980;5.918;2022-09-17T06:05:37;7.85;;;1.33;;
43519;SDS011;46848;51.980;5.918;2022-09-17T06:08:03;7.80;;;1.25;;
43519;SDS011;46848;51.980;5.918;2022-09-17T06:10:29;6.28;;;1.55;;
43519;SDS011;46848;51.980;5.918;2022-09-17T06:12:58;7.13;;;1.40;;
43519;SDS011;46848;51.980;5.918;2022-09-17T06:15:24;6.40;;;1.05;;
43519;SDS011;46848;51.980;5.918;2022-09-17T06:17:51;3.92;;;0.80;;
43519;SDS011;46848;51.980;5.918;2022-09-17T06:20:17;5.05;;;1.13;;
43519;SDS011;46848;51.980;5.918;2022-09-17T06:22:43;5.03;;;1.15;;
43519;SDS011;46848;51.980;5.918;2022-09-17T06:25:09;6.32;;;1.33;;
43519;SDS011;46848;51.980;5.918;2022-09-17T06:27:36;9.63;;;1.50;;
43519;SDS011;46848;51.980;5.918;2022-09-17T06:30:02;4.15;;;1.70;;
43519;SDS011;46848;51.980;5.918;2022-09-17T06:32:28;8.05;;;1.48;;
43519;SDS011;46848;51.980;5.918;2022-09-17T06:34:54;5.63;;;1.33;;
43519;SDS011;46848;51.980;5.918;2022-09-17T06:37:28;8.10;;;1.48;;
43519;SDS011;46848;51.980;5.918;2022-09-17T06:39:54;5.20;;;1.30;;
43519;SDS011;46848;51.980;5.918;2022-09-17T06:42:20;6.78;;;1.25;;
43519;SDS011;46848;51.980;5.918;2022-09-17T06:44:46;5.18;;;1.35;;
43519;SDS011;46848;51.980;5.918;2022-09-17T06:47:12;3.35;;;1.00;;
43519;SDS011;46848;51.980;5.918;2022-09-17T06:49:37;5.88;;;1.00;;
43519;SDS011;46848;51.980;5.918;2022-09-17T06:52:03;8.40;;;1.42;;
43519;SDS011;46848;51.980;5.918;2022-09-17T06:54:29;4.07;;;1.05;;
43519;SDS011;46848;51.980;5.918;2022-09-17T06:56:55;5.97;;;1.33;;
43519;SDS011;46848;51.980;5.918;2022-09-17T06:59:20;5.30;;;1.25;;
43519;SDS011;46848;51.980;5.918;2022-09-17T07:01:46;4.18;;;0.82;;
43519;SDS011;46848;51.980;5.918;2022-09-17T07:04:12;5.70;;;1.05;;
43519;SDS011;46848;51.980;5.918;2022-09-17T07:06:38;9.02;;;1.25;;
43519;SDS011;46848;51.980;5.918;2022-09-17T07:09:03;2.75;;;0.80;;
43519;SDS011;46848;51.980;5.918;2022-09-17T07:11:31;6.93;;;1.40;;
43519;SDS011;46848;51.980;5.918;2022-09-17T07:13:57;5.32;;;1.10;;
43519;SDS011;46848;51.980;5.918;2022-09-17T07:16:23;8.25;;;1.38;;
43519;SDS011;46848;51.980;5.918;2022-09-17T07:18:50;4.38;;;0.70;;
43519;SDS011;46848;51.980;5.918;2022-09-17T07:21:17;5.28;;;1.00;;
43519;SDS011;46848;51.980;5.918;2022-09-17T07:23:42;5.70;;;0.85;;
43519;SDS011;46848;51.980;5.918;2022-09-17T07:26:13;3.67;;;0.77;;
43519;SDS011;46848;51.980;5.918;2022-09-17T07:28:39;4.82;;;1.23;;
43519;SDS011;46848;51.980;5.918;2022-09-17T07:31:06;3.75;;;0.98;;
43519;SDS011;46848;51.980;5.918;2022-09-17T07:33:33;8.95;;;0.95;;
43519;SDS011;46848;51.980;5.918;2022-09-17T07:36:00;6.40;;;1.10;;
43519;SDS011;46848;51.980;5.918;2022-09-17T07:38:28;4.72;;;0.90;;
43519;SDS011;46848;51.980;5.918;2022-09-17T07:40:59;7.35;;;1.30;;
43519;SDS011;46848;51.980;5.918;2022-09-17T07:43:27;7.93;;;0.82;;
43519;SDS011;46848;51.980;5.918;2022-09-17T07:45:58;4.78;;;0.98;;
43519;SDS011;46848;51.980;5.918;2022-09-17T07:48:25;8.77;;;0.98;;
43519;SDS011;46848;51.980;5.918;2022-09-17T07:50:52;5.70;;;1.02;;
43519;SDS011;46848;51.980;5.918;2022-09-17T07:53:18;4.72;;;0.75;;
43519;SDS011;46848;51.980;5.918;2022-09-17T07:55:54;4.60;;;1.00;;
43519;SDS011;46848;51.980;5.918;2022-09-17T07:58:21;6.22;;;0.90;;
43519;SDS011;46848;51.980;5.918;2022-09-17T08:00:48;5.07;;;1.00;;
43519;SDS011;46848;51.980;5.918;2022-09-17T08:03:14;5.18;;;1.02;;
43519;SDS011;46848;51.980;5.918;2022-09-17T08:05:40;5.47;;;1.02;;
43519;SDS011;46848;51.980;5.918;2022-09-17T08:08:06;3.95;;;0.90;;
43519;SDS011;46848;51.980;5.918;2022-09-17T08:10:31;6.05;;;1.23;;
43519;SDS011;46848;51.980;5.918;2022-09-17T08:12:57;6.18;;;1.15;;
43519;SDS011;46848;51.980;5.918;2022-09-17T08:15:24;2.88;;;0.82;;
43519;SDS011;46848;51.980;5.918;2022-09-17T08:17:50;4.50;;;0.82;;
43519;SDS011;46848;51.980;5.918;2022-09-17T08:20:16;3.55;;;1.05;;
43519;SDS011;46848;51.980;5.918;2022-09-17T08:22:43;5.00;;;0.90;;
43519;SDS011;46848;51.980;5.918;2022-09-17T08:25:08;4.43;;;0.70;;
43519;SDS011;46848;51.980;5.918;2022-09-17T08:27:35;3.85;;;0.82;;
43519;SDS011;46848;51.980;5.918;2022-09-17T08:30:03;3.40;;;0.90;;
43519;SDS011;46848;51.980;5.918;2022-09-17T08:32:29;4.95;;;1.00;;
43519;SDS011;46848;51.980;5.918;2022-09-17T08:34:55;5.85;;;0.80;;
43519;SDS011;46848;51.980;5.918;2022-09-17T08:37:21;5.43;;;1.00;;
43519;SDS011;46848;51.980;5.918;2022-09-17T08:39:47;5.20;;;1.23;;
43519;SDS011;46848;51.980;5.918;2022-09-17T08:42:19;6.40;;;1.42;;
43519;SDS011;46848;51.980;5.918;2022-09-17T08:44:47;4.88;;;1.10;;
43519;SDS011;46848;51.980;5.918;2022-09-17T08:50:03;5.57;;;1.13;;
43519;SDS011;46848;51.980;5.918;2022-09-17T08:59:05;5.18;;;1.00;;
43519;SDS011;46848;51.980;5.918;2022-09-17T09:07:19;4.82;;;0.75;;
43519;SDS011;46848;51.980;5.918;2022-09-17T09:12:29;3.58;;;0.77;;
43519;SDS011;46848;51.980;5.918;2022-09-17T09:15:02;4.28;;;0.73;;
43519;SDS011;46848;51.980;5.918;2022-09-17T09:17:31;4.45;;;0.70;;
43519;SDS011;46848;51.980;5.918;2022-09-17T09:23:50;4.30;;;0.70;;
43519;SDS011;46848;51.980;5.918;2022-09-17T09:26:19;3.05;;;0.77;;
43519;SDS011;46848;51.980;5.918;2022-09-17T09:31:20;4.72;;;0.90;;
43519;SDS011;46848;51.980;5.918;2022-09-17T09:34:09;4.43;;;0.80;;
43519;SDS011;46848;51.980;5.918;2022-09-17T09:36:37;4.30;;;1.10;;
43519;SDS011;46848;51.980;5.918;2022-09-17T09:39:11;4.20;;;0.80;;
43519;SDS011;46848;51.980;5.918;2022-09-17T09:41:50;2.22;;;0.50;;
43519;SDS011;46848;51.980;5.918;2022-09-17T09:44:19;4.00;;;0.80;;
43519;SDS011;46848;51.980;5.918;2022-09-17T09:56:00;2.67;;;1.05;;
43519;SDS011;46848;51.980;5.918;2022-09-17T09:58:35;2.72;;;1.35;;
43519;SDS011;46848;51.980;5.918;2022-09-17T10:01:07;2.30;;;0.70;;
43519;SDS011;46848;51.980;5.918;2022-09-17T10:03:35;1.90;;;0.47;;
43519;SDS011;46848;51.980;5.918;2022-09-17T10:06:05;3.25;;;0.60;;
43519;SDS011;46848;51.980;5.918;2022-09-17T10:08:34;2.67;;;0.47;;
43519;SDS011;46848;51.980;5.918;2022-09-17T10:11:02;3.95;;;0.80;;
43519;SDS011;46848;51.980;5.918;2022-09-17T10:13:38;2.95;;;0.50;;
43519;SDS011;46848;51.980;5.918;2022-09-17T10:16:17;2.20;;;0.52;;
43519;SDS011;46848;51.980;5.918;2022-09-17T10:18:45;1.77;;;0.40;;
43519;SDS011;46848;51.980;5.918;2022-09-17T10:21:22;5.18;;;0.50;;
43519;SDS011;46848;51.980;5.918;2022-09-17T10:24:02;2.13;;;0.60;;
43519;SDS011;46848;51.980;5.918;2022-09-17T10:26:46;4.63;;;0.90;;
43519;SDS011;46848;51.980;5.918;2022-09-17T10:29:12;3.95;;;0.90;;
43519;SDS011;46848;51.980;5.918;2022-09-17T10:32:00;4.55;;;1.00;;
43519;SDS011;46848;51.980;5.918;2022-09-17T10:34:30;5.88;;;0.70;;
43519;SDS011;46848;51.980;5.918;2022-09-17T10:36:57;3.58;;;0.52;;
43519;SDS011;46848;51.980;5.918;2022-09-17T10:42:14;2.40;;;0.55;;
43519;SDS011;46848;51.980;5.918;2022-09-17T10:44:54;2.97;;;0.60;;
43519;SDS011;46848;51.980;5.918;2022-09-17T10:47:28;4.30;;;0.70;;
43519;SDS011;46848;51.980;5.918;2022-09-17T10:49:56;3.97;;;0.73;;
43519;SDS011;46848;51.980;5.918;2022-09-17T10:52:28;2.38;;;0.40;;
43519;SDS011;46848;51.980;5.918;2022-09-17T10:55:15;3.22;;;0.50;;
43519;SDS011;46848;51.980;5.918;2022-09-17T11:00:16;0.93;;;0.30;;
43519;SDS011;46848;51.980;5.918;2022-09-17T11:08:53;2.30;;;0.52;;
43519;SDS011;46848;51.980;5.918;2022-09-17T11:11:45;2.20;;;0.40;;
43519;SDS011;46848;51.980;5.918;2022-09-17T11:27:19;1.50;;;0.38;;
43519;SDS011;46848;51.980;5.918;2022-09-17T11:30:00;5.43;;;0.98;;
43519;SDS011;46848;51.980;5.918;2022-09-17T11:32:31;3.85;;;0.70;;
43519;SDS011;46848;51.980;5.918;2022-09-17T11:38:07;5.15;;;1.27;;
43519;SDS011;46848;51.980;5.918;2022-09-17T11:40:41;3.33;;;0.90;;
43519;SDS011;46848;51.980;5.918;2022-09-17T11:45:56;4.35;;;0.93;;
43519;SDS011;46848;51.980;5.918;2022-09-17T11:48:29;4.30;;;1.35;;
43519;SDS011;46848;51.980;5.918;2022-09-17T11:51:34;5.97;;;1.17;;
43519;SDS011;46848;51.980;5.918;2022-09-17T11:56:57;5.05;;;1.20;;
43519;SDS011;46848;51.980;5.918;2022-09-17T11:59:37;9.23;;;1.65;;
43519;SDS011;46848;51.980;5.918;2022-09-17T12:02:25;5.05;;;1.27;;
43519;SDS011;46848;51.980;5.918;2022-09-17T12:05:21;8.18;;;1.63;;
43519;SDS011;46848;51.980;5.918;2022-09-17T12:16:05;4.13;;;1.23;;
43519;SDS011;46848;51.980;5.918;2022-09-17T12:22:03;4.22;;;0.85;;
43519;SDS011;46848;51.980;5.918;2022-09-17T12:24:11;5.72;;;0.90;;
43519;SDS011;46848;51.980;5.918;2022-09-17T12:30:18;5.22;;;1.38;;
43519;SDS011;46848;51.980;5.918;2022-09-17T12:32:47;5.55;;;0.95;;
43519;SDS011;46848;51.980;5.918;2022-09-17T12:40:55;6.60;;;1.02;;
43519;SDS011;46848;51.980;5.918;2022-09-17T12:49:42;5.85;;;1.00;;
43519;SDS011;46848;51.980;5.918;2022-09-17T12:58:06;3.10;;;0.93;;
43519;SDS011;46848;51.980;5.918;2022-09-17T13:00:42;4.32;;;1.05;;
43519;SDS011;46848;51.980;5.918;2022-09-17T13:14:10;4.20;;;0.90;;
43519;SDS011;46848;51.980;5.918;2022-09-17T13:16:54;2.78;;;0.63;;
43519;SDS011;46848;51.980;5.918;2022-09-17T13:19:46;3.47;;;0.77;;
43519;SDS011;46848;51.980;5.918;2022-09-17T13:22:20;5.55;;;1.02;;
43519;SDS011;46848;51.980;5.918;2022-09-17T13:25:01;3.50;;;0.82;;
43519;SDS011;46848;51.980;5.918;2022-09-17T13:27:32;5.35;;;0.68;;
43519;SDS011;46848;51.980;5.918;2022-09-17T13:30:01;4.18;;;0.70;;
43519;SDS011;46848;51.980;5.918;2022-09-17T13:37:38;3.08;;;0.80;;
43519;SDS011;46848;51.980;5.918;2022-09-17T13:40:27;3.90;;;0.90;;
43519;SDS011;46848;51.980;5.918;2022-09-17T13:42:57;4.90;;;0.82;;
43519;SDS011;46848;51.980;5.918;2022-09-17T13:45:32;3.42;;;0.90;;
43519;SDS011;46848;51.980;5.918;2022-09-17T13:48:19;5.20;;;1.08;;
43519;SDS011;46848;51.980;5.918;2022-09-17T13:50:48;4.18;;;1.00;;
43519;SDS011;46848;51.980;5.918;2022-09-17T13:55:43;6.13;;;1.48;;
43519;SDS011;46848;51.980;5.918;2022-09-17T14:06:07;4.30;;;1.05;;
43519;SDS011;46848;51.980;5.918;2022-09-17T14:24:25;6.30;;;1.90;;
43519;SDS011;46848;51.980;5.918;2022-09-17T14:29:41;7.18;;;1.38;;
43519;SDS011;46848;51.980;5.918;2022-09-17T14:32:30;5.78;;;1.10;;
43519;SDS011;46848;51.980;5.918;2022-09-17T14:35:13;9.05;;;1.50;;
43519;SDS011;46848;51.980;5.918;2022-09-17T14:40:48;6.72;;;1.40;;
43519;SDS011;46848;51.980;5.918;2022-09-17T14:46:07;6.05;;;1.30;;
43519;SDS011;46848;51.980;5.918;2022-09-17T14:48:36;5.85;;;1.20;;
43519;SDS011;46848;51.980;5.918;2022-09-17T14:53:42;2.72;;;0.80;;
43519;SDS011;46848;51.980;5.918;2022-09-17T14:56:29;5.57;;;0.90;;
43519;SDS011;46848;51.980;5.918;2022-09-17T14:59:00;3.53;;;0.97;;
43519;SDS011;46848;51.980;5.918;2022-09-17T15:01:29;3.95;;;0.95;;
43519;SDS011;46848;51.980;5.918;2022-09-17T15:07:07;3.47;;;0.95;;
43519;SDS011;46848;51.980;5.918;2022-09-17T15:09:33;6.55;;;1.17;;
43519;SDS011;46848;51.980;5.918;2022-09-17T15:11:59;4.05;;;1.30;;
43519;SDS011;46848;51.980;5.918;2022-09-17T15:14:27;5.13;;;1.38;;
43519;SDS011;46848;51.980;5.918;2022-09-17T15:16:55;6.38;;;1.10;;
43519;SDS011;46848;51.980;5.918;2022-09-17T15:19:26;6.20;;;1.20;;
43519;SDS011;46848;51.980;5.918;2022-09-17T15:22:07;8.40;;;1.17;;
43519;SDS011;46848;51.980;5.918;2022-09-17T15:27:08;5.50;;;1.10;;
43519;SDS011;46848;51.980;5.918;2022-09-17T15:29:52;6.40;;;0.77;;
43519;SDS011;46848;51.980;5.918;2022-09-17T15:32:21;2.17;;;0.55;;
43519;SDS011;46848;51.980;5.918;2022-09-17T15:37:48;5.28;;;1.80;;
43519;SDS011;46848;51.980;5.918;2022-09-17T15:40:39;6.47;;;1.20;;
43519;SDS011;46848;51.980;5.918;2022-09-17T15:45:49;11.00;;;5.10;;
43519;SDS011;46848;51.980;5.918;2022-09-17T15:50:53;6.43;;;3.40;;
43519;SDS011;46848;51.980;5.918;2022-09-17T16:11:20;9.25;;;1.50;;
43519;SDS011;46848;51.980;5.918;2022-09-17T16:13:53;8.07;;;1.63;;
43519;SDS011;46848;51.980;5.918;2022-09-17T16:16:21;6.53;;;1.30;;
43519;SDS011;46848;51.980;5.918;2022-09-17T16:18:49;8.27;;;1.58;;
43519;SDS011;46848;51.980;5.918;2022-09-17T16:21:17;6.15;;;1.30;;
43519;SDS011;46848;51.980;5.918;2022-09-17T16:23:44;7.15;;;1.45;;
43519;SDS011;46848;51.980;5.918;2022-09-17T16:26:14;9.50;;;1.60;;
43519;SDS011;46848;51.980;5.918;2022-09-17T16:28:42;9.70;;;2.15;;
43519;SDS011;46848;51.980;5.918;2022-09-17T16:31:11;7.05;;;1.50;;
43519;SDS011;46848;51.980;5.918;2022-09-17T16:33:37;7.45;;;1.45;;
43519;SDS011;46848;51.980;5.918;2022-09-17T16:36:03;15.55;;;7.43;;
43519;SDS011;46848;51.980;5.918;2022-09-17T16:38:29;25.02;;;5.03;;
43519;SDS011;46848;51.980;5.918;2022-09-17T16:40:54;12.25;;;3.78;;
43519;SDS011;46848;51.980;5.918;2022-09-17T16:43:20;6.40;;;2.80;;
43519;SDS011;46848;51.980;5.918;2022-09-17T16:45:59;16.38;;;7.95;;
43519;SDS011;46848;51.980;5.918;2022-09-17T16:48:28;10.75;;;4.53;;
43519;SDS011;46848;51.980;5.918;2022-09-17T16:50:55;13.70;;;4.93;;
43519;SDS011;46848;51.980;5.918;2022-09-17T16:53:20;9.27;;;3.88;;
43519;SDS011;46848;51.980;5.918;2022-09-17T16:55:46;9.63;;;2.63;;
43519;SDS011;46848;51.980;5.918;2022-09-17T16:58:12;7.15;;;2.30;;
43519;SDS011;46848;51.980;5.918;2022-09-17T17:00:40;6.70;;;1.85;;
43519;SDS011;46848;51.980;5.918;2022-09-17T17:03:08;10.40;;;3.45;;
43519;SDS011;46848;51.980;5.918;2022-09-17T17:05:37;11.43;;;3.92;;
43519;SDS011;46848;51.980;5.918;2022-09-17T17:08:03;21.25;;;10.45;;
43519;SDS011;46848;51.980;5.918;2022-09-17T17:10:29;13.98;;;7.40;;
43519;SDS011;46848;51.980;5.918;2022-09-17T17:12:55;11.40;;;5.32;;
43519;SDS011;46848;51.980;5.918;2022-09-17T17:15:21;9.35;;;3.60;;
43519;SDS011;46848;51.980;5.918;2022-09-17T17:17:47;11.75;;;2.65;;
43519;SDS011;46848;51.980;5.918;2022-09-17T17:20:13;11.27;;;2.92;;
43519;SDS011;46848;51.980;5.918;2022-09-17T17:22:39;7.70;;;1.85;;
43519;SDS011;46848;51.980;5.918;2022-09-17T17:25:05;5.57;;;1.75;;
43519;SDS011;46848;51.980;5.918;2022-09-17T17:27:32;8.85;;;2.20;;
43519;SDS011;46848;51.980;5.918;2022-09-17T17:29:58;12.38;;;3.45;;
43519;SDS011;46848;51.980;5.918;2022-09-17T17:32:26;13.70;;;5.72;;
43519;SDS011;46848;51.980;5.918;2022-09-17T17:34:51;10.40;;;3.50;;
43519;SDS011;46848;51.980;5.918;2022-09-17T17:37:17;12.50;;;3.13;;
43519;SDS011;46848;51.980;5.918;2022-09-17T17:39:43;6.63;;;2.67;;
43519;SDS011;46848;51.980;5.918;2022-09-17T17:42:08;8.02;;;2.80;;
43519;SDS011;46848;51.980;5.918;2022-09-17T17:44:34;7.38;;;2.38;;
43519;SDS011;46848;51.980;5.918;2022-09-17T17:47:00;7.88;;;2.75;;
43519;SDS011;46848;51.980;5.918;2022-09-17T17:49:25;9.35;;;4.68;;
43519;SDS011;46848;51.980;5.918;2022-09-17T17:51:51;34.88;;;17.63;;
43519;SDS011;46848;51.980;5.918;2022-09-17T17:54:17;24.23;;;13.35;;
43519;SDS011;46848;51.980;5.918;2022-09-17T17:56:43;21.63;;;12.13;;
43519;SDS011;46848;51.980;5.918;2022-09-17T17:59:10;14.98;;;6.25;;
43519;SDS011;46848;51.980;5.918;2022-09-17T18:01:35;10.60;;;4.35;;
43519;SDS011;46848;51.980;5.918;2022-09-17T18:04:03;9.32;;;3.50;;
43519;SDS011;46848;51.980;5.918;2022-09-17T18:06:31;6.30;;;2.40;;
43519;SDS011;46848;51.980;5.918;2022-09-17T18:08:57;7.45;;;1.90;;
43519;SDS011;46848;51.980;5.918;2022-09-17T18:11:24;6.35;;;1.50;;
43519;SDS011;46848;51.980;5.918;2022-09-17T18:13:51;10.00;;;2.58;;
43519;SDS011;46848;51.980;5.918;2022-09-17T18:16:19;6.38;;;1.70;;
43519;SDS011;46848;51.980;5.918;2022-09-17T18:18:45;6.18;;;1.63;;
43519;SDS011;46848;51.980;5.918;2022-09-17T18:21:13;6.22;;;1.95;;
43519;SDS011;46848;51.980;5.918;2022-09-17T18:23:41;6.97;;;1.98;;
43519;SDS011;46848;51.980;5.918;2022-09-17T18:26:09;7.20;;;1.42;;
43519;SDS011;46848;51.980;5.918;2022-09-17T18:28:37;5.85;;;1.85;;
43519;SDS011;46848;51.980;5.918;2022-09-17T18:31:13;5.72;;;1.67;;
43519;SDS011;46848;51.980;5.918;2022-09-17T18:33:56;7.45;;;1.70;;
43519;SDS011;46848;51.980;5.918;2022-09-17T18:36:27;4.93;;;1.60;;
43519;SDS011;46848;51.980;5.918;2022-09-17T18:38:56;8.75;;;2.30;;
43519;SDS011;46848;51.980;5.918;2022-09-17T18:41:25;4.90;;;1.33;;
43519;SDS011;46848;51.980;5.918;2022-09-17T18:43:52;4.88;;;1.30;;
43519;SDS011;46848;51.980;5.918;2022-09-17T18:46:18;6.47;;;1.50;;